Aérodrome :
LOGIN :

S'inscrire | Disclaimer

   EN    FR    IT 

 










Légende :    VFR   VFR Marginal   IFR   IFR Intensif   IFR Très Intensif
Visi : 
Plafond : 
>= 8 km
>= 3000ft
5 à 8 km
1000 à 3000 ft
1500m à 5 km
500 à 1000 ft
800 à 1500m
200 à 500 ft
< 800m
< 200 ft
Symboles :   Orages  Brouillard  Fortes neiges  Fortes précipitations  Vent > 20 kt
SIGMETs :   Divers  Orages  Givrage  Turbulence  Onde Orograph.  Cendres Volcan.






- Altitude de l'aérodrome : 13 ft
- Code IATA : SNR


LFRZ - St-Nazaire

DERNIER METAR :
  • 172130Z AUTO 25006KT 9999 ///TCU 06/04 Q1028 BECMG SCT040

METARs EXPIRÉS :
  • 172100Z AUTO 26010KT 9999 FEW036 08/04 Q1028 NOSIG
  • 172030Z AUTO 27010KT CAVOK 08/03 Q1027 NOSIG
  • 172000Z AUTO 26010KT 9999 FEW042/// SCT078/// ///TCU 08/05 Q1027 TEMPO 24015G30KT 4000 SHRA SCT020CB
  • 171930Z AUTO 26010KT 9999 FEW033/// ///CB 08/04 Q1027 TEMPO 24015G30KT 4000 SHRA BECMG SCT040
  • 171900Z AUTO 28013KT 9999 FEW027/// SCT066/// ///CB 09/04 Q1026 TEMPO 24015G30KT 4000 SHRA

TAF TAF LFRZ
Valide du 17 à 18h jusqu'au 18 à 18h UTC


171700Z 1718/1818 25013KT 9999 SCT040
TEMPO 1718/1721 24015G30KT 4000 SHRA SCT020CB
TEMPO 1809/1818 4000 SHRA SCT030TCU



MET'MAP, la Météo Aéronautique d'un coup d'oeil ! - Copyright ORBIFLY Décembre 2007 - Disclaimer

ORBIFLY MET'MAP TEAM :

Programmation & Développement : Alexandra Zaïnal
Sur une idée originale de : Baudouin d'Aumeries
Assistance à la programmation : Marc-Olivier Méhu
Soutien technique & logistique : Manuel Goepfert

Contact : metmap@orbifly.com




SOURCES & CREDITS :

   NOAA